Aikoumaru No.8 — JD3288 — position and weather

sailwx.info

Track history (hours):
 
Tides and Currents Weather Stations Pressure Air Temp Water Temp Dewpoint Dewpoint Depression Visibility Wind Speed Wind Dir Waves Ship Positions

Aikoumaru No.8

Last reported at 2017-Nov-24 20:30 UTC. Time now 2017-Nov-24 20:49 UTC.
Position N 34°33' E 135°18'.

Length 74 m; draft 5 m.

Type: Cargo ship. MMSI: 431003153.

Date/timePositionNaut miles runAvg speedWind from/ knotsBaromVisibWave heightAir tempDewpointWater temp
2017-Nov-24 20:30N 34°33' E 135°18'612.5
2017-Nov-24 20:00N 34°28' E 135°13'611.9
2017-Nov-24 19:30N 34°24' E 135°08'612.0
2017-Nov-24 18:58N 34°18' E 135°04'510.7
2017-Nov-24 18:30N 34°13' E 135°03'612.4
2017-Nov-24 18:01N 34°07' E 135°03'  
2017-Nov-20 00:26N 35°23' E 139°40'0 0.0
2017-Nov-19 23:59N 35°23' E 139°40'0 0.1
2017-Nov-19 23:26N 35°23' E 139°40'0 0.0
2017-Nov-19 22:59N 35°23' E 139°40'0 0.0
2017-Nov-19 22:28N 35°23' E 139°40'0 0.0
2017-Nov-19 21:58N 35°23' E 139°40'0 0.1
2017-Nov-19 21:28N 35°23' E 139°40'0 0.0
2017-Nov-19 20:59N 35°23' E 139°40'0 0.0
2017-Nov-19 20:29N 35°23' E 139°40'0 0.0
2017-Nov-19 19:59N 35°23' E 139°40'0 0.0
2017-Nov-19 19:29N 35°23' E 139°40'0 0.0
2017-Nov-19 18:59N 35°23' E 139°40'0 0.0
2017-Nov-19 18:29N 35°23' E 139°40'0 0.0
2017-Nov-19 17:58N 35°23' E 139°40'0 0.0
2017-Nov-19 17:29N 35°23' E 139°40'0 0.0
2017-Nov-19 16:58N 35°23' E 139°40'0 0.0
2017-Nov-19 16:29N 35°23' E 139°40'0 0.0
2017-Nov-19 15:59N 35°23' E 139°40'0 0.0
2017-Nov-19 15:29N 35°23' E 139°40'0 0.0
2017-Nov-19 14:59N 35°23' E 139°40'0 0.1
2017-Nov-19 14:30N 35°23' E 139°40'0 0.2
2017-Nov-19 14:00N 35°23' E 139°40'0 0.0
2017-Nov-19 13:30N 35°23' E 139°40'0 0.0
2017-Nov-19 12:59N 35°23' E 139°40'0 0.0
2017-Nov-19 12:29N 35°23' E 139°40'0 0.0
2017-Nov-19 11:59N 35°23' E 139°40'0 0.0
2017-Nov-19 11:29N 35°23' E 139°40'0 0.1
2017-Nov-19 10:59N 35°23' E 139°40'0 0.0
2017-Nov-19 10:29N 35°23' E 139°40'0 0.0
2017-Nov-19 09:59N 35°23' E 139°40'0 0.0
2017-Nov-19 09:29N 35°23' E 139°40'0 0.0
2017-Nov-19 08:59N 35°23' E 139°40'0 0.0
2017-Nov-19 08:29N 35°23' E 139°40'0 0.0
2017-Nov-19 07:59N 35°23' E 139°40'0 0.2
2017-Nov-19 07:30N 35°23' E 139°40'4 7.9
2017-Nov-19 07:01N 35°20' E 139°43'611.7
2017-Nov-19 06:30N 35°15' E 139°47'611.2
2017-Nov-19 06:00N 35°09' E 139°46'510.9
2017-Nov-19 05:30N 35°05' E 139°42'510.9
2017-Nov-19 05:00N 35°02' E 139°36'234 9.5
2017-Nov-18 04:17N 34°01' E 135°02'312.5
2017-Nov-18 04:00N 34°05' E 135°02'611.8
2017-Nov-18 03:30N 34°11' E 135°03'612.6
2017-Nov-18 02:59N 34°17' E 135°03'612.9
2017-Nov-18 02:30N 34°23' E 135°07'612.1
2017-Nov-18 02:00N 34°27' E 135°11'611.4
2017-Nov-18 01:29N 34°32' E 135°16'611.4
2017-Nov-18 00:59N 34°36' E 135°21'4 9.1
2017-Nov-18 00:30N 34°35' E 135°27'1 0.0
2017-Nov-17 04:49N 34°34' E 135°27'0 1.1
2017-Nov-17 04:29N 34°35' E 135°27'0 0.1
2017-Nov-17 03:58N 34°35' E 135°27'0 0.0
2017-Nov-17 03:19N 34°35' E 135°27'0 0.0
2017-Nov-17 02:51N 34°35' E 135°27'0 0.0
2017-Nov-17 02:30N 34°35' E 135°27'0 0.1
2017-Nov-17 01:57N 34°35' E 135°27'0 0.0
2017-Nov-17 01:30N 34°35' E 135°27'0 0.0
2017-Nov-17 01:00N 34°35' E 135°27'0 0.0
2017-Nov-17 00:26N 34°35' E 135°27'0 0.0
2017-Nov-17 00:00N 34°35' E 135°27'0 0.0
2017-Nov-16 23:29N 34°35' E 135°27'0 0.0
2017-Nov-16 23:00N 34°35' E 135°27'0 0.1
2017-Nov-16 22:22N 34°35' E 135°27'3 9.5
2017-Nov-16 22:00N 34°36' E 135°23'612.6
2017-Nov-16 21:30N 34°32' E 135°17'612.9
2017-Nov-16 21:00N 34°28' E 135°12'1513.2
2017-Nov-16 19:52N 34°15' E 135°03'513.4
2017-Nov-16 19:30N 34°10' E 135°03'218 8.7
2017-Nov-15 18:34N 34°58' E 139°21'211.8
2017-Nov-15 18:26N 34°59' E 139°23'511.8
2017-Nov-15 18:00N 35°01' E 139°28'612.2
2017-Nov-15 17:30N 35°04' E 139°35'612.8
2017-Nov-15 17:00N 35°06' E 139°42'612.8
2017-Nov-15 16:30N 35°12' E 139°46'611.5
2017-Nov-15 16:00N 35°18' E 139°44'612.2
2017-Nov-15 15:30N 35°24' E 139°43'612.5
2017-Nov-15 15:00N 35°28' E 139°48'  
Track history (hours):
 
Tides and Currents Weather Stations Pressure Air Temp Water Temp Dewpoint Dewpoint Depression Visibility Wind Speed Wind Dir Waves Ship Positions

Aikoumaru No.8

Last reported at 2017-Nov-24 20:30 UTC. Time now 2017-Nov-24 20:49 UTC.
Position N 34°33' E 135°18'.

Length 74 m; draft 5 m.

Type: Cargo ship. MMSI: 431003153.

Date/timePositionNaut miles runAvg speedWind from/ knotsBaromVisibWave heightAir tempDewpointWater temp
2017-Nov-24 20:30N 34°33' E 135°18'612.5
2017-Nov-24 20:00N 34°28' E 135°13'611.9
2017-Nov-24 19:30N 34°24' E 135°08'612.0
2017-Nov-24 18:58N 34°18' E 135°04'510.7
2017-Nov-24 18:30N 34°13' E 135°03'612.4
2017-Nov-24 18:01N 34°07' E 135°03'  
2017-Nov-20 00:26N 35°23' E 139°40'0 0.0
2017-Nov-19 23:59N 35°23' E 139°40'0 0.1
2017-Nov-19 23:26N 35°23' E 139°40'0 0.0
2017-Nov-19 22:59N 35°23' E 139°40'0 0.0
2017-Nov-19 22:28N 35°23' E 139°40'0 0.0
2017-Nov-19 21:58N 35°23' E 139°40'0 0.1
2017-Nov-19 21:28N 35°23' E 139°40'0 0.0
2017-Nov-19 20:59N 35°23' E 139°40'0 0.0
2017-Nov-19 20:29N 35°23' E 139°40'0 0.0
2017-Nov-19 19:59N 35°23' E 139°40'0 0.0
2017-Nov-19 19:29N 35°23' E 139°40'0 0.0
2017-Nov-19 18:59N 35°23' E 139°40'0 0.0
2017-Nov-19 18:29N 35°23' E 139°40'0 0.0
2017-Nov-19 17:58N 35°23' E 139°40'0 0.0
2017-Nov-19 17:29N 35°23' E 139°40'0 0.0
2017-Nov-19 16:58N 35°23' E 139°40'0 0.0
2017-Nov-19 16:29N 35°23' E 139°40'0 0.0
2017-Nov-19 15:59N 35°23' E 139°40'0 0.0
2017-Nov-19 15:29N 35°23' E 139°40'0 0.0
2017-Nov-19 14:59N 35°23' E 139°40'0 0.1
2017-Nov-19 14:30N 35°23' E 139°40'0 0.2
2017-Nov-19 14:00N 35°23' E 139°40'0 0.0
2017-Nov-19 13:30N 35°23' E 139°40'0 0.0
2017-Nov-19 12:59N 35°23' E 139°40'0 0.0
2017-Nov-19 12:29N 35°23' E 139°40'0 0.0
2017-Nov-19 11:59N 35°23' E 139°40'0 0.0
2017-Nov-19 11:29N 35°23' E 139°40'0 0.1
2017-Nov-19 10:59N 35°23' E 139°40'0 0.0
2017-Nov-19 10:29N 35°23' E 139°40'0 0.0
2017-Nov-19 09:59N 35°23' E 139°40'0 0.0
2017-Nov-19 09:29N 35°23' E 139°40'0 0.0
2017-Nov-19 08:59N 35°23' E 139°40'0 0.0
2017-Nov-19 08:29N 35°23' E 139°40'0 0.0
2017-Nov-19 07:59N 35°23' E 139°40'0 0.2
2017-Nov-19 07:30N 35°23' E 139°40'4 7.9
2017-Nov-19 07:01N 35°20' E 139°43'611.7
2017-Nov-19 06:30N 35°15' E 139°47'611.2
2017-Nov-19 06:00N 35°09' E 139°46'510.9
2017-Nov-19 05:30N 35°05' E 139°42'510.9
2017-Nov-19 05:00N 35°02' E 139°36'234 9.5
2017-Nov-18 04:17N 34°01' E 135°02'312.5
2017-Nov-18 04:00N 34°05' E 135°02'611.8
2017-Nov-18 03:30N 34°11' E 135°03'612.6
2017-Nov-18 02:59N 34°17' E 135°03'612.9
2017-Nov-18 02:30N 34°23' E 135°07'612.1
2017-Nov-18 02:00N 34°27' E 135°11'611.4
2017-Nov-18 01:29N 34°32' E 135°16'611.4
2017-Nov-18 00:59N 34°36' E 135°21'4 9.1
2017-Nov-18 00:30N 34°35' E 135°27'1 0.0
2017-Nov-17 04:49N 34°34' E 135°27'0 1.1
2017-Nov-17 04:29N 34°35' E 135°27'0 0.1
2017-Nov-17 03:58N 34°35' E 135°27'0 0.0
2017-Nov-17 03:19N 34°35' E 135°27'0 0.0
2017-Nov-17 02:51N 34°35' E 135°27'0 0.0
2017-Nov-17 02:30N 34°35' E 135°27'0 0.1
2017-Nov-17 01:57N 34°35' E 135°27'0 0.0
2017-Nov-17 01:30N 34°35' E 135°27'0 0.0
2017-Nov-17 01:00N 34°35' E 135°27'0 0.0
2017-Nov-17 00:26N 34°35' E 135°27'0 0.0
2017-Nov-17 00:00N 34°35' E 135°27'0 0.0
2017-Nov-16 23:29N 34°35' E 135°27'0 0.0
2017-Nov-16 23:00N 34°35' E 135°27'0 0.1
2017-Nov-16 22:22N 34°35' E 135°27'3 9.5
2017-Nov-16 22:00N 34°36' E 135°23'612.6
2017-Nov-16 21:30N 34°32' E 135°17'612.9
2017-Nov-16 21:00N 34°28' E 135°12'1513.2
2017-Nov-16 19:52N 34°15' E 135°03'513.4
2017-Nov-16 19:30N 34°10' E 135°03'218 8.7
2017-Nov-15 18:34N 34°58' E 139°21'211.8
2017-Nov-15 18:26N 34°59' E 139°23'511.8
2017-Nov-15 18:00N 35°01' E 139°28'612.2
2017-Nov-15 17:30N 35°04' E 139°35'612.8
2017-Nov-15 17:00N 35°06' E 139°42'612.8
2017-Nov-15 16:30N 35°12' E 139°46'611.5
2017-Nov-15 16:00N 35°18' E 139°44'612.2
2017-Nov-15 15:30N 35°24' E 139°43'612.5
2017-Nov-15 15:00N 35°28' E 139°48'  

Dump ship's entire track history